createdAt,value
2018-03-16T00:02:03.992Z,22.60
2018-03-16T00:04:10.305Z,22.57
2018-03-16T00:06:17.208Z,22.56
2018-03-16T00:08:23.506Z,22.59
2018-03-16T00:10:34.054Z,22.58
2018-03-16T00:12:40.598Z,22.64
2018-03-16T00:14:46.424Z,22.55
2018-03-16T00:16:52.034Z,22.52
2018-03-16T00:18:57.332Z,22.57
2018-03-16T00:21:02.730Z,22.62
2018-03-16T00:23:09.558Z,22.55
2018-03-16T00:25:15.236Z,22.55
2018-03-16T00:27:20.931Z,22.57
2018-03-16T00:29:26.574Z,22.55
2018-03-16T00:31:32.744Z,22.55
2018-03-16T00:33:38.693Z,22.62
2018-03-16T00:35:59.290Z,22.62
2018-03-16T00:38:05.172Z,22.68
2018-03-16T00:40:10.723Z,22.68
2018-03-16T00:42:16.477Z,22.78
2018-03-16T00:44:22.853Z,22.75
2018-03-16T00:46:32.978Z,22.70
2018-03-16T00:48:39.477Z,22.71
2018-03-16T00:50:45.872Z,22.72
2018-03-16T00:52:51.564Z,22.83
2018-03-16T00:54:57.679Z,22.75
2018-03-16T00:57:03.731Z,22.72
2018-03-16T00:59:09.407Z,22.67
2018-03-16T01:01:15.505Z,22.63
2018-03-16T01:03:21.322Z,22.69
2018-03-16T01:05:27.390Z,22.73
2018-03-16T01:07:33.525Z,22.72
2018-03-16T01:09:39.445Z,22.83
2018-03-16T01:11:45.176Z,22.76
2018-03-16T01:13:51.572Z,22.74
2018-03-16T01:15:57.448Z,22.73
2018-03-16T01:18:03.356Z,22.76
2018-03-16T01:20:09.795Z,22.74
2018-03-16T01:22:16.292Z,22.76
2018-03-16T01:24:22.228Z,22.73
2018-03-16T01:26:28.047Z,22.80
2018-03-16T01:28:34.334Z,22.67
2018-03-16T01:30:40.325Z,22.59
2018-03-16T01:32:46.211Z,22.64
2018-03-16T01:34:52.488Z,22.54
2018-03-16T01:36:58.394Z,22.44
2018-03-16T01:39:05.733Z,22.41
2018-03-16T01:41:11.946Z,22.43
2018-03-16T01:43:17.966Z,22.40
2018-03-16T01:45:24.006Z,22.37
2018-03-16T01:47:29.861Z,22.38
2018-03-16T01:49:36.137Z,22.35
2018-03-16T01:51:41.961Z,22.32
2018-03-16T01:53:47.924Z,22.30
2018-03-16T01:55:54.207Z,22.28
2018-03-16T01:58:00.129Z,22.31
2018-03-16T02:00:06.292Z,22.34
2018-03-16T02:02:12.107Z,22.24
2018-03-16T02:04:18.277Z,22.27
2018-03-16T02:06:24.314Z,22.30
2018-03-16T02:08:30.879Z,22.27
2018-03-16T02:10:37.075Z,22.26
2018-03-16T02:12:42.375Z,22.26
2018-03-16T02:14:48.386Z,22.23
2018-03-16T02:16:54.246Z,22.22
2018-03-16T02:18:59.841Z,22.20
2018-03-16T02:21:05.921Z,22.14
2018-03-16T02:23:11.776Z,22.14
2018-03-16T02:25:17.552Z,22.04
2018-03-16T02:27:23.807Z,22.12
2018-03-16T02:29:29.649Z,22.10
2018-03-16T02:31:35.714Z,22.14
2018-03-16T02:33:42.508Z,22.11
2018-03-16T02:35:48.949Z,22.10
2018-03-16T02:37:54.179Z,22.20
2018-03-16T02:40:00.296Z,22.11
2018-03-16T02:42:06.163Z,22.16
2018-03-16T02:44:12.330Z,22.18
2018-03-16T02:46:18.774Z,22.11
2018-03-16T02:48:24.004Z,22.06
2018-03-16T02:50:29.294Z,22.10
2018-03-16T02:52:34.609Z,22.24
2018-03-16T02:54:40.710Z,22.11
2018-03-16T02:56:46.815Z,22.12
2018-03-16T02:58:52.821Z,22.09
2018-03-16T03:00:58.422Z,22.01
2018-03-16T03:03:04.286Z,22.11
2018-03-16T03:05:10.141Z,22.14
2018-03-16T03:07:16.999Z,22.11
2018-03-16T03:09:22.884Z,22.02
2018-03-16T03:11:28.901Z,21.94
2018-03-16T03:13:35.066Z,21.99
2018-03-16T03:15:41.099Z,21.92
2018-03-16T03:17:46.894Z,21.99
2018-03-16T03:19:52.982Z,21.93
2018-03-16T03:21:59.422Z,22.00
2018-03-16T03:24:05.260Z,21.95
2018-03-16T03:26:11.272Z,21.87
2018-03-16T03:28:17.361Z,21.97
2018-03-16T03:30:23.523Z,21.94
2018-03-16T03:32:29.511Z,21.88
2018-03-16T03:34:35.107Z,21.85
2018-03-16T03:36:41.138Z,21.93
2018-03-16T03:38:47.194Z,21.96
2018-03-16T03:40:53.552Z,21.93
2018-03-16T03:43:00.127Z,21.88
2018-03-16T03:45:06.608Z,21.82
2018-03-16T03:47:12.374Z,21.91
2018-03-16T03:49:17.797Z,21.94
2018-03-16T03:51:22.937Z,21.90
2018-03-16T03:53:29.365Z,21.98
2018-03-16T03:55:35.214Z,22.01
2018-03-16T03:57:40.620Z,21.95
2018-03-16T03:59:46.511Z,22.04
2018-03-16T04:01:53.567Z,21.97
2018-03-16T04:03:59.275Z,22.00
2018-03-16T04:06:04.737Z,22.11
2018-03-16T04:08:10.800Z,21.97
2018-03-16T04:10:16.804Z,21.95
2018-03-16T04:12:22.498Z,21.95
2018-03-16T04:14:28.194Z,21.93
2018-03-16T04:16:33.638Z,21.93
2018-03-16T04:18:38.839Z,21.85
2018-03-16T04:20:44.467Z,22.03
2018-03-16T04:22:51.084Z,21.90
2018-03-16T04:24:56.440Z,21.92
2018-03-16T04:27:02.220Z,21.93
2018-03-16T04:29:08.329Z,22.02
2018-03-16T04:31:14.163Z,21.88
2018-03-16T04:33:19.435Z,21.95
2018-03-16T04:35:24.654Z,21.92
2018-03-16T04:37:30.310Z,21.83
2018-03-16T04:39:36.085Z,21.91
2018-03-16T04:41:42.052Z,21.86
2018-03-16T04:43:47.491Z,21.98
2018-03-16T04:45:54.341Z,22.01
2018-03-16T04:47:59.667Z,21.99
2018-03-16T04:50:05.132Z,21.98
2018-03-16T04:52:10.598Z,21.93
2018-03-16T04:54:17.010Z,21.95
2018-03-16T04:56:23.154Z,21.88
2018-03-16T04:58:28.427Z,21.92
2018-03-16T05:00:34.255Z,21.83
2018-03-16T05:02:39.951Z,21.86
2018-03-16T05:04:45.975Z,21.98
2018-03-16T05:06:52.367Z,21.91
2018-03-16T05:08:57.607Z,21.81
2018-03-16T05:11:03.333Z,21.91
2018-03-16T05:13:08.630Z,22.03
2018-03-16T05:15:15.116Z,22.08
2018-03-16T05:17:21.284Z,22.09
2018-03-16T05:19:27.687Z,22.08
2018-03-16T05:21:32.964Z,22.08
2018-03-16T05:23:38.239Z,21.92
2018-03-16T05:25:43.763Z,22.00
2018-03-16T05:27:49.659Z,21.92
2018-03-16T05:29:55.961Z,21.93
2018-03-16T05:32:01.246Z,21.94
2018-03-16T05:34:06.809Z,21.93
2018-03-16T05:36:12.816Z,21.93
2018-03-16T05:38:18.285Z,21.94
2018-03-16T05:40:23.913Z,21.90
2018-03-16T05:42:29.604Z,21.91
2018-03-16T05:44:35.540Z,22.00
2018-03-16T05:46:43.119Z,21.88
2018-03-16T05:48:48.524Z,21.90
2018-03-16T05:50:54.119Z,21.90
2018-03-16T05:52:59.781Z,21.94
2018-03-16T05:55:10.243Z,21.88
2018-03-16T05:57:15.948Z,21.91
2018-03-16T05:59:21.592Z,21.92
2018-03-16T06:01:27.220Z,22.01
2018-03-16T06:03:33.225Z,21.96
2018-03-16T06:05:38.776Z,21.90
2018-03-16T06:07:49.100Z,22.08
2018-03-16T06:09:54.912Z,21.99
2018-03-16T06:12:00.504Z,22.03
2018-03-16T06:14:05.836Z,21.97
2018-03-16T06:16:11.298Z,21.93
2018-03-16T06:18:16.955Z,21.94
2018-03-16T06:20:22.778Z,21.99
2018-03-16T06:22:28.053Z,21.99
2018-03-16T06:24:33.636Z,22.01
2018-03-16T06:26:38.887Z,21.93
2018-03-16T06:28:44.723Z,21.94
2018-03-16T06:30:50.305Z,21.93
2018-03-16T06:32:55.632Z,21.94
2018-03-16T06:35:00.961Z,21.93
2018-03-16T06:37:06.513Z,21.95
2018-03-16T06:39:11.976Z,21.95
2018-03-16T06:41:17.355Z,21.88
2018-03-16T06:43:22.933Z,21.98
2018-03-16T06:45:28.217Z,21.96
2018-03-16T06:47:33.476Z,21.96
2018-03-16T06:49:39.875Z,21.88
2018-03-16T06:51:45.735Z,21.88
2018-03-16T06:53:51.730Z,21.85
2018-03-16T06:56:01.180Z,21.86
2018-03-16T06:58:06.505Z,21.88
2018-03-16T07:00:12.440Z,22.02
2018-03-16T07:02:18.040Z,22.10
2018-03-16T07:04:23.749Z,21.99
2018-03-16T07:06:29.095Z,22.03
2018-03-16T07:08:34.833Z,22.01
2018-03-16T07:10:40.208Z,22.04
2018-03-16T07:12:45.572Z,22.11
2018-03-16T07:14:51.679Z,22.12
2018-03-16T07:16:56.956Z,22.12
2018-03-16T07:19:02.260Z,22.15
2018-03-16T07:21:09.072Z,22.21
2018-03-16T07:23:14.451Z,22.17
2018-03-16T07:25:19.778Z,22.23
2018-03-16T07:27:25.407Z,22.09
2018-03-16T07:29:30.760Z,22.09
2018-03-16T07:31:36.124Z,22.08
2018-03-16T07:33:41.734Z,22.09
2018-03-16T07:35:46.987Z,22.21
2018-03-16T07:37:52.328Z,22.20
2018-03-16T07:39:58.668Z,22.26
2018-03-16T07:42:04.608Z,22.23
2018-03-16T07:44:09.977Z,22.27
2018-03-16T07:46:17.092Z,22.35
2018-03-16T07:48:22.416Z,22.29
2018-03-16T07:50:29.153Z,22.33
2018-03-16T07:52:34.787Z,22.23
2018-03-16T07:54:40.813Z,22.48
2018-03-16T07:56:47.481Z,22.50
2018-03-16T07:58:52.767Z,22.51
2018-03-16T08:00:59.091Z,22.56
2018-03-16T08:03:04.912Z,22.69
2018-03-16T08:05:11.341Z,22.56
2018-03-16T08:07:17.185Z,22.65
2018-03-16T08:09:23.378Z,22.76
2018-03-16T08:11:29.158Z,22.61
2018-03-16T08:13:35.237Z,22.73
2018-03-16T08:15:41.348Z,22.71
2018-03-16T08:17:47.952Z,22.75
2018-03-16T08:19:53.285Z,22.73
2018-03-16T08:21:58.932Z,22.78
2018-03-16T08:24:04.425Z,22.84
2018-03-16T08:26:10.277Z,22.74
2018-03-16T08:28:16.135Z,22.84
2018-03-16T08:30:22.022Z,22.68
2018-03-16T08:32:27.399Z,22.68
2018-03-16T08:34:33.792Z,22.69
2018-03-16T08:36:39.803Z,22.62
2018-03-16T08:38:45.780Z,22.66
2018-03-16T08:40:51.359Z,22.66
2018-03-16T08:42:56.745Z,22.84
2018-03-16T08:45:02.023Z,22.72
2018-03-16T08:47:08.020Z,22.68
2018-03-16T08:49:13.955Z,22.70
2018-03-16T08:51:19.284Z,22.86
2018-03-16T08:53:25.438Z,22.90
2018-03-16T08:55:31.600Z,23.02
2018-03-16T08:57:36.947Z,23.11
2018-03-16T08:59:42.932Z,23.10
2018-03-16T09:01:49.083Z,23.11
2018-03-16T09:03:54.443Z,23.14
2018-03-16T09:06:00.163Z,23.02
2018-03-16T09:08:05.596Z,23.06
2018-03-16T09:10:11.019Z,23.14
2018-03-16T09:12:16.870Z,23.18
2018-03-16T09:14:22.680Z,23.15
2018-03-16T09:16:28.659Z,23.15
2018-03-16T09:18:34.429Z,23.20
2018-03-16T09:20:43.903Z,23.20
2018-03-16T09:22:49.273Z,23.18
2018-03-16T09:24:54.989Z,23.28
2018-03-16T09:27:00.343Z,23.19
2018-03-16T09:29:05.687Z,23.14
2018-03-16T09:31:12.040Z,23.13
2018-03-16T09:33:18.205Z,23.10
2018-03-16T09:35:23.593Z,23.23
2018-03-16T09:37:29.246Z,23.31
2018-03-16T09:39:34.560Z,23.31
2018-03-16T09:41:40.450Z,23.24
2018-03-16T09:43:46.492Z,23.09
2018-03-16T09:45:52.658Z,22.97
2018-03-16T09:47:58.648Z,23.00
2018-03-16T09:50:06.371Z,22.96
2018-03-16T09:52:11.776Z,22.91
2018-03-16T09:54:17.500Z,22.96
2018-03-16T09:56:24.327Z,22.92
2018-03-16T09:58:29.592Z,22.92
2018-03-16T10:00:34.880Z,23.07
2018-03-16T10:02:40.503Z,23.24
2018-03-16T10:04:45.786Z,23.22
2018-03-16T10:06:51.533Z,23.24
2018-03-16T10:08:57.046Z,23.27
2018-03-16T10:11:02.416Z,23.31
2018-03-16T10:13:07.688Z,23.26
2018-03-16T10:15:13.408Z,23.23
2018-03-16T10:18:43.304Z,23.17
2018-03-16T10:20:49.039Z,23.25
2018-03-16T10:22:54.333Z,23.26
2018-03-16T10:24:59.712Z,23.22
2018-03-16T10:27:06.291Z,23.32
2018-03-16T10:29:11.573Z,23.27
2018-03-16T10:31:17.195Z,23.32
2018-03-16T10:33:23.434Z,23.27
2018-03-16T10:35:29.324Z,23.10
2018-03-16T10:37:34.764Z,23.20
2018-03-16T10:39:40.491Z,23.14
2018-03-16T10:41:47.315Z,23.29
2018-03-16T10:43:53.124Z,23.21
2018-03-16T10:45:58.901Z,23.24
2018-03-16T10:48:04.354Z,23.23
2018-03-16T10:50:09.643Z,23.17
2018-03-16T10:52:15.284Z,23.10
2018-03-16T10:54:20.607Z,23.11
2018-03-16T10:56:26.064Z,23.13
2018-03-16T10:58:31.704Z,23.07
2018-03-16T11:00:41.792Z,23.15
2018-03-16T11:02:51.047Z,23.08
2018-03-16T11:05:00.562Z,22.96
2018-03-16T11:07:09.959Z,22.89
2018-03-16T11:09:15.300Z,22.91
2018-03-16T11:11:21.050Z,22.81
2018-03-16T11:13:26.415Z,23.00
2018-03-16T11:15:31.665Z,22.95
2018-03-16T11:17:37.317Z,23.07
2018-03-16T11:19:42.628Z,23.10
2018-03-16T11:21:48.360Z,22.93
2018-03-16T11:23:54.168Z,23.15
2018-03-16T11:25:59.546Z,23.22
2018-03-16T11:28:05.396Z,23.23
2018-03-16T11:30:11.583Z,23.24
2018-03-16T11:32:17.880Z,23.17
2018-03-16T11:34:23.306Z,23.23
2018-03-16T11:36:29.102Z,23.27
2018-03-16T11:38:34.533Z,23.20
2018-03-16T11:40:39.816Z,23.18
2018-03-16T11:42:46.077Z,23.17
2018-03-16T11:44:51.587Z,23.25
2018-03-16T11:46:56.877Z,23.21
2018-03-16T11:49:03.078Z,23.26
2018-03-16T11:51:08.349Z,23.29
2018-03-16T11:53:14.146Z,23.20
2018-03-16T11:55:19.816Z,23.26
2018-03-16T11:57:25.186Z,23.28
2018-03-16T11:59:30.455Z,23.15
2018-03-16T12:01:36.085Z,23.09
2018-03-16T12:03:41.385Z,23.01
2018-03-16T12:05:46.691Z,22.97
2018-03-16T12:07:52.395Z,22.92
2018-03-16T12:09:57.762Z,23.12
2018-03-16T12:12:04.084Z,23.05
2018-03-16T12:14:09.640Z,22.97
2018-03-16T12:16:17.165Z,22.97
2018-03-16T12:18:25.097Z,22.97
2018-03-16T12:20:31.301Z,22.92
2018-03-16T12:22:41.996Z,22.92
2018-03-16T12:24:52.514Z,22.93
2018-03-16T12:27:09.053Z,22.88
2018-03-16T12:29:14.656Z,22.90
2018-03-16T12:31:20.035Z,23.00
2018-03-16T12:33:25.726Z,22.92
2018-03-16T12:35:31.075Z,23.00
2018-03-16T12:37:37.225Z,22.94
2018-03-16T12:39:44.223Z,22.96
2018-03-16T12:41:49.456Z,23.07
2018-03-16T12:43:55.390Z,23.08
2018-03-16T12:46:01.584Z,22.98
2018-03-16T12:48:06.911Z,23.09
2018-03-16T12:50:12.256Z,23.07
2018-03-16T12:52:17.732Z,23.04
2018-03-16T12:54:23.110Z,23.04
2018-03-16T12:56:29.093Z,23.00
2018-03-16T12:58:35.263Z,23.09
2018-03-16T13:00:40.561Z,23.03
2018-03-16T13:02:46.051Z,22.97
2018-03-16T13:04:51.849Z,22.90
2018-03-16T13:06:57.093Z,23.15
2018-03-16T13:09:02.456Z,23.04
2018-03-16T13:11:08.115Z,22.94
2018-03-16T13:13:13.653Z,23.12
2018-03-16T13:15:19.105Z,23.06
2018-03-16T13:17:25.157Z,22.96
2018-03-16T13:19:30.876Z,22.86
2018-03-16T13:21:37.291Z,22.97
2018-03-16T13:24:06.182Z,22.91
2018-03-16T13:26:11.790Z,22.90
2018-03-16T13:28:17.731Z,22.88
2018-03-16T13:30:23.352Z,22.93
2018-03-16T13:32:29.083Z,22.84
2018-03-16T13:34:34.759Z,22.77
2018-03-16T13:36:40.500Z,22.75
2018-03-16T13:38:45.867Z,22.80
2018-03-16T13:40:51.167Z,22.73
2018-03-16T13:42:56.773Z,22.71
2018-03-16T13:45:02.650Z,22.72
2018-03-16T13:47:08.049Z,22.79
2018-03-16T13:49:13.727Z,22.76
2018-03-16T13:51:19.142Z,22.74
2018-03-16T13:53:24.539Z,22.70
2018-03-16T13:55:30.795Z,22.77
2018-03-16T13:57:36.151Z,22.81
2018-03-16T13:59:41.620Z,22.80
2018-03-16T14:01:47.257Z,22.80
2018-03-16T14:03:52.840Z,22.89
2018-03-16T14:06:18.183Z,22.80
2018-03-16T14:08:24.639Z,22.85
2018-03-16T14:10:29.937Z,22.79
2018-03-16T14:12:35.396Z,22.81
2018-03-16T14:14:41.008Z,22.67
2018-03-16T14:16:46.344Z,22.83
2018-03-16T14:18:51.611Z,22.66
2018-03-16T14:20:57.383Z,22.73
2018-03-16T14:23:02.732Z,22.82
2018-03-16T14:25:08.042Z,22.83
2018-03-16T14:27:13.729Z,22.85
2018-03-16T14:29:19.844Z,22.82
2018-03-16T14:31:25.461Z,22.87
2018-03-16T14:33:34.040Z,22.81
2018-03-16T14:37:03.317Z,22.73
2018-03-16T14:39:09.484Z,22.78
2018-03-16T14:41:15.852Z,22.76
2018-03-16T14:43:21.231Z,22.76
2018-03-16T14:45:26.926Z,22.70
2018-03-16T14:47:33.351Z,22.68
2018-03-16T14:49:38.655Z,22.78
2018-03-16T14:51:44.598Z,22.74
2018-03-16T14:53:49.950Z,22.68
2018-03-16T14:55:55.224Z,22.68
2018-03-16T14:58:00.870Z,22.63
2018-03-16T15:00:07.659Z,22.59
2018-03-16T15:02:13.455Z,22.76
2018-03-16T15:04:19.789Z,22.84
2018-03-16T15:06:25.145Z,22.87
2018-03-16T15:08:31.847Z,22.84
2018-03-16T15:10:37.783Z,22.78
2018-03-16T15:12:43.222Z,22.85
2018-03-16T15:14:48.624Z,22.88
2018-03-16T15:16:54.374Z,22.75
2018-03-16T15:18:59.826Z,22.74
2018-03-16T15:21:06.069Z,22.69
2018-03-16T15:23:11.820Z,22.60
2018-03-16T15:25:17.264Z,22.63
2018-03-16T15:27:22.550Z,22.43
2018-03-16T15:29:28.407Z,22.53
2018-03-16T15:31:33.992Z,22.50
2018-03-16T15:33:39.585Z,22.49
2018-03-16T15:35:46.232Z,22.42
2018-03-16T15:37:52.474Z,22.30
2018-03-16T15:39:57.745Z,22.29
2018-03-16T15:42:03.647Z,22.37
2018-03-16T15:44:09.216Z,22.27
2018-03-16T15:46:16.167Z,22.23
2018-03-16T15:48:21.858Z,22.29
2018-03-16T15:50:27.206Z,22.22
2018-03-16T15:52:32.600Z,22.17
2018-03-16T15:54:38.263Z,22.18
2018-03-16T15:56:43.621Z,22.26
2018-03-16T15:58:49.044Z,22.19
2018-03-16T16:00:55.063Z,22.20
2018-03-16T16:03:00.543Z,22.22
2018-03-16T16:05:07.116Z,22.24
2018-03-16T16:07:14.095Z,22.32
2018-03-16T16:09:19.596Z,22.32
2018-03-16T16:11:24.973Z,22.15
2018-03-16T16:13:30.893Z,22.24
2018-03-16T16:15:36.488Z,22.11
2018-03-16T16:17:41.869Z,22.13
2018-03-16T16:19:47.843Z,22.16
2018-03-16T16:21:53.985Z,22.14
2018-03-16T16:23:59.506Z,22.10
2018-03-16T16:26:05.042Z,22.14
2018-03-16T16:28:10.536Z,22.20
2018-03-16T16:30:16.160Z,22.18
2018-03-16T16:32:21.846Z,22.26
2018-03-16T16:34:27.259Z,22.20
2018-03-16T16:36:33.650Z,22.06
2018-03-16T16:38:45.999Z,22.05
2018-03-16T16:40:51.769Z,22.14
2018-03-16T16:42:57.120Z,22.14
2018-03-16T16:45:03.002Z,22.11
2018-03-16T16:47:08.437Z,22.08
2018-03-16T16:49:13.890Z,21.95
2018-03-16T16:51:19.557Z,21.94
2018-03-16T16:53:25.062Z,22.04
2018-03-16T16:55:30.483Z,21.90
2018-03-16T16:57:36.290Z,22.13
2018-03-16T16:59:41.684Z,22.00
2018-03-16T17:01:47.284Z,22.04
2018-03-16T17:03:53.295Z,21.88
2018-03-16T17:05:58.669Z,21.85
2018-03-16T17:08:04.212Z,21.91
2018-03-16T17:10:10.434Z,21.77
2018-03-16T17:12:15.960Z,21.79
2018-03-16T17:14:21.312Z,21.96
2018-03-16T17:16:26.945Z,21.93
2018-03-16T17:18:32.853Z,22.01
2018-03-16T17:20:38.222Z,22.03
2018-03-16T17:22:43.975Z,21.91
2018-03-16T17:24:49.513Z,21.87
2018-03-16T17:26:54.949Z,22.01
2018-03-16T17:29:00.646Z,21.86
2018-03-16T17:31:06.651Z,21.80
2018-03-16T17:33:12.338Z,21.85
2018-03-16T17:35:17.990Z,21.93
2018-03-16T17:37:23.396Z,21.88
2018-03-16T17:39:29.038Z,22.00
2018-03-16T17:41:37.067Z,21.84
2018-03-16T17:43:42.688Z,22.04
2018-03-16T17:45:48.310Z,21.99
2018-03-16T17:47:54.269Z,21.94
2018-03-16T17:50:00.858Z,21.90
2018-03-16T17:52:06.471Z,21.82
2018-03-16T17:54:12.183Z,21.69
2018-03-16T17:56:17.730Z,21.82
2018-03-16T17:58:23.121Z,21.92
2018-03-16T18:00:29.672Z,21.83
2018-03-16T18:02:35.112Z,21.86
2018-03-16T18:04:40.471Z,21.81
2018-03-16T18:06:46.121Z,21.76
2018-03-16T18:08:51.508Z,21.76
2018-03-16T18:10:56.794Z,21.60
2018-03-16T18:13:02.949Z,21.64
2018-03-16T18:15:08.780Z,21.73
2018-03-16T18:17:14.220Z,21.52
2018-03-16T18:19:20.221Z,21.52
2018-03-16T18:21:25.684Z,21.76
2018-03-16T18:23:31.265Z,21.74
2018-03-16T18:25:36.980Z,21.77
2018-03-16T18:27:42.294Z,21.73
2018-03-16T18:29:47.752Z,21.79
2018-03-16T18:31:53.344Z,21.90
2018-03-16T18:33:58.689Z,21.89
2018-03-16T18:36:04.087Z,21.76
2018-03-16T18:38:09.863Z,21.81
2018-03-16T18:40:15.276Z,21.97
2018-03-16T18:42:21.602Z,21.85
2018-03-16T18:44:27.317Z,21.80
2018-03-16T18:46:32.691Z,21.84
2018-03-16T18:48:38.262Z,21.76
2018-03-16T18:50:44.046Z,21.74
2018-03-16T18:52:49.611Z,21.79
2018-03-16T18:54:54.933Z,21.65
2018-03-16T18:57:00.626Z,21.81
2018-03-16T18:59:06.075Z,21.66
2018-03-16T19:01:11.920Z,21.76
2018-03-16T19:04:41.420Z,21.69
2018-03-16T19:06:46.844Z,21.76
2018-03-16T19:08:52.538Z,21.73
2018-03-16T19:10:58.781Z,21.73
2018-03-16T19:13:05.147Z,21.72
2018-03-16T19:15:12.301Z,21.75
2018-03-16T19:17:17.839Z,21.66
2018-03-16T19:19:23.195Z,21.79
2018-03-16T19:21:28.924Z,21.81
2018-03-16T19:23:34.197Z,21.88
2018-03-16T19:25:39.507Z,21.69
2018-03-16T19:27:45.215Z,21.66
2018-03-16T19:29:50.518Z,21.59
2018-03-16T19:31:55.941Z,21.56
2018-03-16T19:34:01.918Z,21.69
2018-03-16T19:36:08.327Z,21.57
2018-03-16T19:38:13.748Z,21.57
2018-03-16T19:40:19.766Z,21.69
2018-03-16T19:42:25.516Z,21.75
2018-03-16T19:44:30.834Z,21.74
2018-03-16T19:46:36.552Z,21.73
2018-03-16T19:48:41.900Z,21.78
2018-03-16T19:50:47.296Z,21.81
2018-03-16T19:52:52.948Z,21.93
2018-03-16T19:54:58.293Z,21.84
2018-03-16T19:57:03.803Z,21.93
2018-03-16T19:59:09.553Z,21.85
2018-03-16T20:01:15.285Z,21.79
2018-03-16T20:03:21.398Z,21.80
2018-03-16T20:05:27.058Z,21.90
2018-03-16T20:07:32.510Z,21.91
2018-03-16T20:09:37.988Z,21.79
2018-03-16T20:11:43.810Z,21.77
2018-03-16T20:13:49.609Z,21.93
2018-03-16T20:15:54.981Z,21.81
2018-03-16T20:18:00.589Z,21.90
2018-03-16T20:20:06.432Z,21.92
2018-03-16T20:22:11.736Z,21.85
2018-03-16T20:24:17.276Z,21.87
2018-03-16T20:26:23.954Z,21.85
2018-03-16T20:28:29.425Z,21.80
2018-03-16T20:30:35.161Z,21.87
2018-03-16T20:32:41.717Z,21.71
2018-03-16T20:34:47.866Z,21.73
2018-03-16T20:36:53.856Z,21.76
2018-03-16T20:38:59.268Z,21.76
2018-03-16T20:41:05.046Z,21.71
2018-03-16T20:43:10.957Z,21.76
2018-03-16T20:45:16.316Z,21.81
2018-03-16T20:47:21.644Z,21.82
2018-03-16T20:49:27.924Z,21.74
2018-03-16T20:51:33.459Z,21.88
2018-03-16T20:53:38.813Z,21.95
2018-03-16T20:55:44.356Z,21.89
2018-03-16T20:57:49.927Z,21.82
2018-03-16T20:59:55.189Z,21.80
2018-03-16T21:02:01.055Z,21.77
2018-03-16T21:04:06.438Z,21.74
2018-03-16T21:06:12.664Z,21.78
2018-03-16T21:08:18.232Z,21.85
2018-03-16T21:10:23.575Z,21.81
2018-03-16T21:12:28.853Z,21.85
2018-03-16T21:14:34.510Z,21.91
2018-03-16T21:16:39.881Z,21.92
2018-03-16T21:18:45.327Z,21.86
2018-03-16T21:20:51.543Z,21.93
2018-03-16T21:22:56.840Z,21.75
2018-03-16T21:25:02.226Z,21.59
2018-03-16T21:27:08.165Z,21.56
2018-03-16T21:29:13.421Z,21.36
2018-03-16T21:31:19.933Z,21.49
2018-03-16T21:33:25.610Z,21.55
2018-03-16T21:35:31.171Z,21.59
2018-03-16T21:37:36.889Z,21.62
2018-03-16T21:39:42.689Z,21.63
2018-03-16T21:41:48.537Z,21.60
2018-03-16T21:43:53.910Z,21.68
2018-03-16T21:45:59.826Z,21.61
2018-03-16T21:48:05.298Z,21.75
2018-03-16T21:50:10.747Z,21.76
2018-03-16T21:52:16.537Z,21.78
2018-03-16T21:54:22.175Z,21.75
2018-03-16T21:56:27.648Z,21.59
2018-03-16T21:58:33.510Z,21.70
2018-03-16T22:00:39.086Z,21.73
2018-03-16T22:02:44.824Z,21.70
2018-03-16T22:04:50.521Z,21.81
2018-03-16T22:06:56.025Z,21.71
2018-03-16T22:09:01.560Z,21.57
2018-03-16T22:11:07.281Z,21.73
2018-03-16T22:13:16.549Z,21.74
2018-03-16T22:15:22.087Z,21.68
2018-03-16T22:17:28.024Z,21.72
2018-03-16T22:19:33.809Z,21.62
2018-03-16T22:21:39.271Z,21.59
2018-03-16T22:23:45.037Z,21.57
2018-03-16T22:25:50.627Z,21.72
2018-03-16T22:27:56.054Z,21.73
2018-03-16T22:30:01.798Z,21.59
2018-03-16T22:32:07.207Z,21.72
2018-03-16T22:34:12.489Z,21.69
2018-03-16T22:36:18.800Z,21.73
2018-03-16T22:38:24.300Z,21.66
2018-03-16T22:42:40.086Z,21.66
2018-03-16T22:44:45.472Z,21.71
2018-03-16T22:46:50.977Z,21.62
2018-03-16T22:48:56.632Z,21.54
2018-03-16T22:51:01.910Z,21.61
2018-03-16T22:53:07.964Z,21.48
2018-03-16T22:55:13.572Z,21.53
2018-03-16T22:57:19.124Z,21.47
2018-03-16T22:59:24.543Z,21.45
2018-03-16T23:01:32.125Z,21.46
2018-03-16T23:03:38.129Z,21.52
2018-03-16T23:05:44.112Z,21.57
2018-03-16T23:07:50.079Z,21.42
2018-03-16T23:10:03.192Z,21.44
2018-03-16T23:12:08.650Z,21.46
2018-03-16T23:14:14.723Z,21.41
2018-03-16T23:16:20.118Z,21.57
2018-03-16T23:18:25.464Z,21.55
2018-03-16T23:20:31.387Z,21.46
2018-03-16T23:22:37.864Z,21.55
2018-03-16T23:24:43.112Z,21.45
2018-03-16T23:26:48.906Z,21.55
2018-03-16T23:28:54.402Z,21.48
2018-03-16T23:30:59.809Z,21.56
2018-03-16T23:33:06.795Z,21.50
2018-03-16T23:35:12.984Z,21.49
2018-03-16T23:37:18.607Z,21.61
2018-03-16T23:39:24.850Z,21.67
2018-03-16T23:41:30.251Z,21.45
2018-03-16T23:43:38.858Z,21.46
2018-03-16T23:45:44.539Z,21.52
2018-03-16T23:47:50.032Z,21.46
2018-03-16T23:49:55.372Z,21.44
2018-03-16T23:52:05.948Z,21.48
2018-03-16T23:54:11.557Z,21.49
2018-03-16T23:56:17.112Z,21.61
2018-03-16T23:58:22.728Z,21.56
